Terminal Aerodrome Forecast
Issued by NWS Cleveland, OH

Home | Current Version | Previous Version | Text Only | Print | Product List | Glossary Off
Versions: 1 2 3 4 5 6 7 8 9 10 11 12 13 14 15 16 17 18 19 20 21 22 23 24 25 26 27 28 29 30 31 32 33

000
FTUS41 KCLE 301738
TAFCLE
TAF
KCLE 301738Z 3018/0124 20011KT P6SM OVC015
      TEMPO 3020/3022 SCT015
     FM302200 25010KT P6SM VCSH OVC019
     FM010000 25010KT P6SM VCSH OVC020
     FM010300 26015KT P6SM SCT020
     FM010600 25015KT P6SM SCT015 BKN020=

USA.gov is the U.S. government's official web portal to all federal, state and local government web resources and services.